createdAt,value
2023-05-06T00:00:00.437Z,86
2023-05-06T00:01:00.958Z,86
2023-05-06T00:02:01.683Z,86
2023-05-06T00:03:02.479Z,86
2023-05-06T00:04:03.322Z,86
2023-05-06T00:05:03.861Z,86
2023-05-06T00:06:04.386Z,86
2023-05-06T00:07:05.106Z,86
2023-05-06T00:08:05.811Z,86
2023-05-06T00:09:12.180Z,86
2023-05-06T00:10:12.706Z,86
2023-05-06T00:11:13.252Z,86
2023-05-06T00:12:13.926Z,86
2023-05-06T00:13:14.598Z,86
2023-05-06T00:14:15.184Z,86
2023-05-06T00:15:15.797Z,86
2023-05-06T00:16:16.344Z,86
2023-05-06T00:17:17.056Z,86
2023-05-06T00:18:17.651Z,86
2023-05-06T00:19:18.277Z,86
2023-05-06T00:20:19.000Z,86
2023-05-06T00:21:19.409Z,86
2023-05-06T00:22:19.970Z,86
2023-05-06T00:23:20.507Z,86
2023-05-06T00:24:21.087Z,86
2023-05-06T00:25:21.584Z,86
2023-05-06T00:26:22.141Z,86
2023-05-06T00:27:22.660Z,86
2023-05-06T00:28:23.182Z,86
2023-05-06T00:29:23.730Z,86
2023-05-06T00:30:24.397Z,86
2023-05-06T00:31:24.913Z,86
2023-05-06T00:32:25.669Z,86
2023-05-06T00:33:26.259Z,86
2023-05-06T00:34:32.626Z,86
2023-05-06T00:35:33.408Z,86
2023-05-06T00:36:33.705Z,86
2023-05-06T00:37:34.227Z,86
2023-05-06T00:38:34.994Z,86
2023-05-06T00:39:35.571Z,86
2023-05-06T00:40:36.066Z,86
2023-05-06T00:41:36.611Z,86
2023-05-06T00:42:37.267Z,86
2023-05-06T00:43:37.802Z,86
2023-05-06T00:44:38.333Z,86
2023-05-06T00:45:38.886Z,86
2023-05-06T00:46:39.392Z,86
2023-05-06T00:47:39.982Z,86
2023-05-06T00:48:40.513Z,86
2023-05-06T00:49:41.218Z,86
2023-05-06T00:50:42.659Z,86
2023-05-06T00:51:43.190Z,86
2023-05-06T00:52:43.909Z,86
2023-05-06T00:53:44.433Z,86
2023-05-06T00:54:45.142Z,86
2023-05-06T00:55:45.671Z,86
2023-05-06T00:56:52.331Z,86
2023-05-06T00:57:52.891Z,86
2023-05-06T00:58:53.455Z,86
2023-05-06T00:59:53.982Z,86
2023-05-06T01:00:54.707Z,86
2023-05-06T01:01:55.420Z,86
2023-05-06T01:02:56.122Z,86
2023-05-06T01:03:56.654Z,86
2023-05-06T01:04:57.382Z,86
2023-05-06T01:05:58.104Z,86
2023-05-06T01:06:58.724Z,86
2023-05-06T01:07:59.254Z,86
2023-05-06T01:08:59.799Z,86
2023-05-06T01:10:00.394Z,86
2023-05-06T01:11:00.937Z,88
2023-05-06T01:12:01.539Z,88
2023-05-06T01:13:02.108Z,88
2023-05-06T01:14:02.772Z,88
2023-05-06T01:15:03.503Z,88
2023-05-06T01:16:04.039Z,88
2023-05-06T01:17:04.795Z,88
2023-05-06T01:18:05.350Z,88
2023-05-06T01:19:11.710Z,88
2023-05-06T01:20:12.374Z,88
2023-05-06T01:21:13.027Z,88
2023-05-06T01:22:13.424Z,88
2023-05-06T01:23:14.116Z,88
2023-05-06T01:24:14.673Z,88
2023-05-06T01:25:15.193Z,88
2023-05-06T01:26:15.770Z,88
2023-05-06T01:27:16.490Z,88
2023-05-06T01:28:17.017Z,88
2023-05-06T01:29:17.734Z,88
2023-05-06T01:30:18.471Z,88
2023-05-06T01:31:19.172Z,88
2023-05-06T01:32:19.730Z,88
2023-05-06T01:33:20.177Z,88
2023-05-06T01:34:20.941Z,88
2023-05-06T01:35:21.489Z,88
2023-05-06T01:36:22.103Z,88
2023-05-06T01:37:22.710Z,88
2023-05-06T01:38:23.264Z,88
2023-05-06T01:39:23.954Z,88
2023-05-06T01:40:24.495Z,88
2023-05-06T01:41:31.008Z,88
2023-05-06T01:42:31.553Z,88
2023-05-06T01:43:32.329Z,88
2023-05-06T01:44:32.979Z,88
2023-05-06T01:45:33.722Z,88
2023-05-06T01:46:34.494Z,88
2023-05-06T01:47:35.135Z,88
2023-05-06T01:48:35.642Z,88
2023-05-06T01:49:36.297Z,88
2023-05-06T01:50:36.847Z,88
2023-05-06T01:51:37.640Z,88
2023-05-06T01:52:38.167Z,88
2023-05-06T01:53:38.748Z,88
2023-05-06T01:54:39.319Z,88
2023-05-06T01:55:39.924Z,88
2023-05-06T01:56:40.466Z,88
2023-05-06T01:57:41.086Z,88
2023-05-06T01:58:41.693Z,88
2023-05-06T01:59:42.225Z,88
2023-05-06T02:00:42.926Z,88
2023-05-06T02:01:43.686Z,88
2023-05-06T02:02:44.242Z,88
2023-05-06T02:03:50.763Z,88
2023-05-06T02:04:51.359Z,88
2023-05-06T02:05:52.083Z,88
2023-05-06T02:06:52.689Z,88
2023-05-06T02:07:53.151Z,88
2023-05-06T02:08:53.837Z,88
2023-05-06T02:09:54.472Z,88
2023-05-06T02:10:55.189Z,88
2023-05-06T02:11:55.916Z,88
2023-05-06T02:12:56.443Z,88
2023-05-06T02:13:56.956Z,88
2023-05-06T02:14:57.498Z,88
2023-05-06T02:15:58.216Z,88
2023-05-06T02:16:58.817Z,88
2023-05-06T02:17:59.407Z,88
2023-05-06T02:18:59.919Z,88
2023-05-06T02:20:00.670Z,88
2023-05-06T02:21:01.385Z,88
2023-05-06T02:22:01.998Z,88
2023-05-06T02:23:02.435Z,88
2023-05-06T02:24:02.948Z,88
2023-05-06T02:25:03.668Z,88
2023-05-06T02:26:10.146Z,88
2023-05-06T02:27:10.856Z,88
2023-05-06T02:28:11.355Z,88
2023-05-06T02:29:12.111Z,88
2023-05-06T02:30:12.653Z,88
2023-05-06T02:31:13.370Z,88
2023-05-06T02:32:13.881Z,88
2023-05-06T02:33:14.419Z,88
2023-05-06T02:34:14.942Z,88
2023-05-06T02:35:15.518Z,88
2023-05-06T02:36:16.038Z,88
2023-05-06T02:37:16.596Z,88
2023-05-06T02:38:17.074Z,88
2023-05-06T02:39:17.590Z,88
2023-05-06T02:40:18.320Z,88
2023-05-06T02:41:18.845Z,88
2023-05-06T02:42:19.582Z,88
2023-05-06T02:43:20.283Z,88
2023-05-06T02:44:20.828Z,88
2023-05-06T02:45:21.545Z,88
2023-05-06T02:46:22.199Z,88
2023-05-06T02:47:22.711Z,88
2023-05-06T02:48:23.132Z,88
2023-05-06T02:49:23.669Z,88
2023-05-06T02:50:24.186Z,88
2023-05-06T02:51:30.876Z,88
2023-05-06T02:52:31.759Z,88
2023-05-06T02:53:32.121Z,88
2023-05-06T02:54:32.858Z,88
2023-05-06T02:55:33.583Z,88
2023-05-06T02:56:34.185Z,88
2023-05-06T02:57:34.670Z,88
2023-05-06T02:58:35.351Z,88
2023-05-06T02:59:35.884Z,88
2023-05-06T03:00:36.404Z,88
2023-05-06T03:01:37.099Z,88
2023-05-06T03:02:37.659Z,88
2023-05-06T03:03:38.159Z,88
2023-05-06T03:04:38.729Z,88
2023-05-06T03:05:39.358Z,88
2023-05-06T03:06:39.994Z,88
2023-05-06T03:07:40.621Z,88
2023-05-06T03:08:41.050Z,88
2023-05-06T03:09:41.778Z,88
2023-05-06T03:10:42.374Z,88
2023-05-06T03:11:42.916Z,89
2023-05-06T03:12:43.518Z,89
2023-05-06T03:13:50.290Z,89
2023-05-06T03:14:50.833Z,89
2023-05-06T03:15:51.409Z,89
2023-05-06T03:16:52.049Z,89
2023-05-06T03:17:52.591Z,89
2023-05-06T03:18:53.110Z,89
2023-05-06T03:19:53.663Z,89
2023-05-06T03:20:54.189Z,89
2023-05-06T03:21:54.761Z,89
2023-05-06T03:22:55.388Z,89
2023-05-06T03:23:55.981Z,89
2023-05-06T03:24:56.695Z,89
2023-05-06T03:25:57.330Z,89
2023-05-06T03:26:57.855Z,89
2023-05-06T03:27:58.379Z,89
2023-05-06T03:28:58.929Z,89
2023-05-06T03:29:59.469Z,89
2023-05-06T03:31:00.039Z,89
2023-05-06T03:32:00.923Z,89
2023-05-06T03:33:01.268Z,89
2023-05-06T03:34:01.902Z,89
2023-05-06T03:35:02.619Z,89
2023-05-06T03:36:09.471Z,89
2023-05-06T03:37:10.008Z,89
2023-05-06T03:38:10.624Z,89
2023-05-06T03:39:11.235Z,89
2023-05-06T03:40:11.759Z,89
2023-05-06T03:41:12.316Z,89
2023-05-06T03:42:12.998Z,89
2023-05-06T03:43:13.524Z,89
2023-05-06T03:44:14.150Z,89
2023-05-06T03:45:14.664Z,89
2023-05-06T03:46:15.255Z,89
2023-05-06T03:47:15.756Z,89
2023-05-06T03:48:16.277Z,89
2023-05-06T03:49:16.874Z,89
2023-05-06T03:50:17.560Z,89
2023-05-06T03:51:18.101Z,86
2023-05-06T03:52:18.707Z,86
2023-05-06T03:53:19.574Z,86
2023-05-06T03:54:20.137Z,86
2023-05-06T03:55:20.785Z,86
2023-05-06T03:56:21.289Z,86
2023-05-06T03:57:21.806Z,86
2023-05-06T03:58:28.580Z,86
2023-05-06T03:59:29.188Z,86
2023-05-06T04:00:29.748Z,86
2023-05-06T04:01:30.429Z,86
2023-05-06T04:02:31.208Z,86
2023-05-06T04:03:31.815Z,86
2023-05-06T04:04:32.297Z,86
2023-05-06T04:05:33.006Z,86
2023-05-06T04:06:33.528Z,86
2023-05-06T04:07:34.087Z,86
2023-05-06T04:08:34.636Z,86
2023-05-06T04:09:35.136Z,86
2023-05-06T04:10:35.822Z,86
2023-05-06T04:11:36.430Z,89
2023-05-06T04:12:36.999Z,89
2023-05-06T04:13:37.574Z,89
2023-05-06T04:14:38.101Z,89
2023-05-06T04:15:38.825Z,89
2023-05-06T04:16:39.449Z,89
2023-05-06T04:17:39.957Z,89
2023-05-06T04:18:40.567Z,89
2023-05-06T04:19:41.307Z,89
2023-05-06T04:20:47.695Z,89
2023-05-06T04:21:48.373Z,89
2023-05-06T04:22:48.885Z,89
2023-05-06T04:23:49.692Z,89
2023-05-06T04:24:50.156Z,89
2023-05-06T04:25:50.786Z,89
2023-05-06T04:26:51.284Z,89
2023-05-06T04:27:51.798Z,89
2023-05-06T04:28:52.535Z,89
2023-05-06T04:29:53.256Z,89
2023-05-06T04:30:53.901Z,89
2023-05-06T04:31:54.600Z,89
2023-05-06T04:32:55.342Z,89
2023-05-06T04:33:56.050Z,89
2023-05-06T04:34:56.589Z,89
2023-05-06T04:35:57.179Z,89
2023-05-06T04:36:57.691Z,89
2023-05-06T04:37:58.428Z,89
2023-05-06T04:38:59.204Z,89
2023-05-06T04:39:59.583Z,89
2023-05-06T04:41:00.145Z,89
2023-05-06T04:42:00.678Z,89
2023-05-06T04:43:07.498Z,89
2023-05-06T04:44:08.196Z,89
2023-05-06T04:45:09.095Z,89
2023-05-06T04:46:09.595Z,89
2023-05-06T04:47:10.180Z,89
2023-05-06T04:48:10.687Z,89
2023-05-06T04:49:12.492Z,89
2023-05-06T04:50:11.976Z,89
2023-05-06T04:51:12.657Z,81
2023-05-06T04:52:13.211Z,81
2023-05-06T04:53:13.788Z,81
2023-05-06T04:54:14.476Z,81
2023-05-06T04:55:15.030Z,81
2023-05-06T04:56:15.647Z,81
2023-05-06T04:57:16.279Z,81
2023-05-06T04:58:17.008Z,81
2023-05-06T04:59:17.715Z,81
2023-05-06T05:00:18.260Z,81
2023-05-06T05:01:18.819Z,81
2023-05-06T05:02:19.349Z,81
2023-05-06T05:03:20.105Z,81
2023-05-06T05:04:20.627Z,81
2023-05-06T05:05:27.093Z,81
2023-05-06T05:06:27.618Z,81
2023-05-06T05:07:28.332Z,81
2023-05-06T05:08:28.955Z,81
2023-05-06T05:09:29.758Z,81
2023-05-06T05:10:30.294Z,81
2023-05-06T05:11:30.921Z,82
2023-05-06T05:12:31.441Z,82
2023-05-06T05:13:31.942Z,82
2023-05-06T05:14:32.450Z,82
2023-05-06T05:15:32.965Z,82
2023-05-06T05:16:33.492Z,82
2023-05-06T05:17:34.018Z,82
2023-05-06T05:18:34.738Z,82
2023-05-06T05:19:35.466Z,82
2023-05-06T05:20:36.075Z,82
2023-05-06T05:21:36.806Z,82
2023-05-06T05:22:37.527Z,82
2023-05-06T05:23:38.270Z,82
2023-05-06T05:24:39.261Z,82
2023-05-06T05:25:39.490Z,82
2023-05-06T05:26:40.112Z,82
2023-05-06T05:27:46.788Z,82
2023-05-06T05:28:47.403Z,82
2023-05-06T05:29:48.017Z,82
2023-05-06T05:30:48.796Z,82
2023-05-06T05:31:49.409Z,82
2023-05-06T05:32:49.970Z,82
2023-05-06T05:33:50.498Z,82
2023-05-06T05:34:51.053Z,82
2023-05-06T05:35:51.595Z,82
2023-05-06T05:36:52.139Z,82
2023-05-06T05:37:52.903Z,82
2023-05-06T05:38:53.414Z,82
2023-05-06T05:39:53.966Z,82
2023-05-06T05:40:54.476Z,82
2023-05-06T05:41:55.019Z,82
2023-05-06T05:42:55.578Z,82
2023-05-06T05:43:56.114Z,82
2023-05-06T05:44:56.620Z,82
2023-05-06T05:45:57.169Z,82
2023-05-06T05:46:57.695Z,82
2023-05-06T05:47:58.304Z,82
2023-05-06T05:48:59.018Z,82
2023-05-06T05:49:59.494Z,82
2023-05-06T05:51:00.065Z,85
2023-05-06T05:52:00.599Z,85
2023-05-06T05:53:07.335Z,85
2023-05-06T05:54:07.846Z,85
2023-05-06T05:55:08.628Z,85
2023-05-06T05:56:09.094Z,85
2023-05-06T05:57:09.657Z,85
2023-05-06T05:58:10.190Z,85
2023-05-06T05:59:10.847Z,85
2023-05-06T06:00:13.438Z,85
2023-05-06T06:01:12.302Z,85
2023-05-06T06:02:13.021Z,85
2023-05-06T06:03:13.695Z,85
2023-05-06T06:04:14.169Z,85
2023-05-06T06:05:14.733Z,85
2023-05-06T06:06:15.220Z,85
2023-05-06T06:07:15.766Z,85
2023-05-06T06:08:16.352Z,85
2023-05-06T06:09:16.909Z,85
2023-05-06T06:10:17.686Z,85
2023-05-06T06:11:18.199Z,85
2023-05-06T06:12:18.929Z,85
2023-05-06T06:13:19.621Z,85
2023-05-06T06:14:20.090Z,85
2023-05-06T06:15:26.623Z,85
2023-05-06T06:16:27.175Z,85
2023-05-06T06:17:27.879Z,85
2023-05-06T06:18:28.496Z,85
2023-05-06T06:19:29.208Z,85
2023-05-06T06:20:29.969Z,85
2023-05-06T06:21:30.502Z,85
2023-05-06T06:22:31.168Z,85
2023-05-06T06:23:31.703Z,85
2023-05-06T06:24:32.236Z,85
2023-05-06T06:25:32.989Z,85
2023-05-06T06:26:33.285Z,85
2023-05-06T06:27:33.806Z,85
2023-05-06T06:28:34.323Z,85
2023-05-06T06:29:34.856Z,85
2023-05-06T06:30:35.352Z,85
2023-05-06T06:31:37.066Z,84
2023-05-06T06:32:36.589Z,84
2023-05-06T06:33:37.191Z,84
2023-05-06T06:34:37.924Z,84
2023-05-06T06:35:38.518Z,84
2023-05-06T06:36:39.150Z,84
2023-05-06T06:37:45.822Z,84
2023-05-06T06:38:46.532Z,84
2023-05-06T06:39:47.068Z,84
2023-05-06T06:40:47.607Z,84
2023-05-06T06:41:48.196Z,84
2023-05-06T06:42:48.754Z,84
2023-05-06T06:43:49.436Z,84
2023-05-06T06:44:49.961Z,84
2023-05-06T06:45:50.510Z,84
2023-05-06T06:46:51.115Z,84
2023-05-06T06:47:51.865Z,84
2023-05-06T06:48:52.553Z,84
2023-05-06T06:49:53.268Z,84
2023-05-06T06:50:54.604Z,78
2023-05-06T06:51:55.144Z,78
2023-05-06T06:52:55.666Z,78
2023-05-06T06:53:56.381Z,78
2023-05-06T06:54:56.894Z,78
2023-05-06T06:55:57.614Z,78
2023-05-06T06:57:04.071Z,78
2023-05-06T06:58:04.740Z,78
2023-05-06T06:59:05.420Z,78
2023-05-06T07:00:06.143Z,78
2023-05-06T07:01:06.699Z,78
2023-05-06T07:02:07.304Z,78
2023-05-06T07:03:07.880Z,78
2023-05-06T07:04:08.457Z,78
2023-05-06T07:05:09.086Z,78
2023-05-06T07:06:09.476Z,78
2023-05-06T07:07:10.100Z,78
2023-05-06T07:08:10.667Z,78
2023-05-06T07:09:11.327Z,78
2023-05-06T07:10:11.850Z,78
2023-05-06T07:11:12.495Z,76
2023-05-06T07:12:12.920Z,76
2023-05-06T07:13:13.493Z,76
2023-05-06T07:14:13.971Z,76
2023-05-06T07:15:14.476Z,76
2023-05-06T07:16:15.155Z,76
2023-05-06T07:17:15.946Z,76
2023-05-06T07:18:16.726Z,76
2023-05-06T07:19:23.372Z,76
2023-05-06T07:20:23.982Z,76
2023-05-06T07:21:24.513Z,76
2023-05-06T07:22:25.044Z,76
2023-05-06T07:23:25.761Z,76
2023-05-06T07:24:26.374Z,76
2023-05-06T07:25:26.978Z,76
2023-05-06T07:26:27.560Z,76
2023-05-06T07:27:28.065Z,76
2023-05-06T07:28:28.588Z,76
2023-05-06T07:29:29.115Z,76
2023-05-06T07:30:29.637Z,76
2023-05-06T07:31:30.329Z,76
2023-05-06T07:32:30.942Z,76
2023-05-06T07:33:31.464Z,76
2023-05-06T07:34:31.997Z,76
2023-05-06T07:35:32.531Z,76
2023-05-06T07:36:33.050Z,76
2023-05-06T07:37:33.578Z,76
2023-05-06T07:38:34.108Z,76
2023-05-06T07:39:34.754Z,76
2023-05-06T07:40:35.530Z,76
2023-05-06T07:41:36.315Z,76
2023-05-06T07:42:36.829Z,76
2023-05-06T07:43:37.373Z,76
2023-05-06T07:44:43.842Z,76
2023-05-06T07:45:44.537Z,76
2023-05-06T07:46:45.085Z,76
2023-05-06T07:47:45.695Z,76
2023-05-06T07:48:46.320Z,76
2023-05-06T07:49:47.015Z,76
2023-05-06T07:50:47.552Z,76
2023-05-06T07:51:48.169Z,74
2023-05-06T07:52:48.781Z,74
2023-05-06T07:53:49.513Z,74
2023-05-06T07:54:50.217Z,74
2023-05-06T07:55:50.949Z,74
2023-05-06T07:56:51.825Z,74
2023-05-06T07:57:52.201Z,74
2023-05-06T07:58:52.876Z,74
2023-05-06T07:59:53.546Z,74
2023-05-06T08:00:54.076Z,74
2023-05-06T08:01:54.685Z,74
2023-05-06T08:02:55.383Z,74
2023-05-06T08:03:56.033Z,74
2023-05-06T08:04:56.559Z,74
2023-05-06T08:05:57.080Z,74
2023-05-06T08:07:03.722Z,74
2023-05-06T08:08:04.456Z,74
2023-05-06T08:09:04.991Z,74
2023-05-06T08:10:05.604Z,74
2023-05-06T08:11:06.316Z,71
2023-05-06T08:12:06.954Z,71
2023-05-06T08:13:07.404Z,71
2023-05-06T08:14:07.931Z,71
2023-05-06T08:15:08.550Z,71
2023-05-06T08:16:09.042Z,71
2023-05-06T08:17:09.542Z,71
2023-05-06T08:18:21.433Z,71
2023-05-06T08:19:10.689Z,71
2023-05-06T08:20:11.207Z,71
2023-05-06T08:21:11.780Z,71
2023-05-06T08:22:12.280Z,71
2023-05-06T08:23:12.816Z,71
2023-05-06T08:24:13.460Z,71
2023-05-06T08:25:14.190Z,71
2023-05-06T08:26:14.706Z,71
2023-05-06T08:27:15.478Z,71
2023-05-06T08:28:15.888Z,71
2023-05-06T08:29:16.586Z,71
2023-05-06T08:30:17.125Z,71
2023-05-06T08:31:17.664Z,73
2023-05-06T08:32:24.414Z,73
2023-05-06T08:33:25.115Z,73
2023-05-06T08:34:25.641Z,73
2023-05-06T08:35:26.175Z,73
2023-05-06T08:36:26.872Z,73
2023-05-06T08:37:27.590Z,73
2023-05-06T08:38:28.322Z,73
2023-05-06T08:39:28.927Z,73
2023-05-06T08:40:29.642Z,73
2023-05-06T08:41:30.199Z,73
2023-05-06T08:42:30.985Z,73
2023-05-06T08:43:31.632Z,73
2023-05-06T08:44:32.157Z,73
2023-05-06T08:45:32.703Z,73
2023-05-06T08:46:33.394Z,73
2023-05-06T08:47:33.926Z,73
2023-05-06T08:48:34.623Z,73
2023-05-06T08:49:35.129Z,73
2023-05-06T08:50:35.751Z,73
2023-05-06T08:51:36.277Z,67
2023-05-06T08:52:37.010Z,67
2023-05-06T08:53:37.546Z,67
2023-05-06T08:54:43.978Z,67
2023-05-06T08:55:44.515Z,67
2023-05-06T08:56:45.046Z,67
2023-05-06T08:57:46.169Z,67
2023-05-06T08:58:46.170Z,67
2023-05-06T08:59:46.682Z,67
2023-05-06T09:00:47.240Z,67
2023-05-06T09:01:47.834Z,67
2023-05-06T09:02:48.464Z,67
2023-05-06T09:03:49.102Z,67
2023-05-06T09:04:49.700Z,67
2023-05-06T09:05:50.303Z,67
2023-05-06T09:06:50.916Z,67
2023-05-06T09:07:51.650Z,67
2023-05-06T09:08:52.172Z,67
2023-05-06T09:09:52.790Z,67
2023-05-06T09:10:53.330Z,67
2023-05-06T09:11:53.863Z,66
2023-05-06T09:12:54.513Z,66
2023-05-06T09:13:55.054Z,66
2023-05-06T09:14:55.608Z,66
2023-05-06T09:15:56.155Z,66
2023-05-06T09:16:56.965Z,66
2023-05-06T09:17:57.508Z,66
2023-05-06T09:18:58.016Z,66
2023-05-06T09:20:04.832Z,66
2023-05-06T09:21:05.378Z,66
2023-05-06T09:22:05.988Z,66
2023-05-06T09:23:06.606Z,66
2023-05-06T09:24:07.125Z,66
2023-05-06T09:25:08.000Z,66
2023-05-06T09:26:08.568Z,66
2023-05-06T09:27:10.487Z,66
2023-05-06T09:28:09.828Z,66
2023-05-06T09:29:10.350Z,66
2023-05-06T09:30:10.873Z,66
2023-05-06T09:31:11.498Z,63
2023-05-06T09:32:12.099Z,63
2023-05-06T09:33:12.728Z,63
2023-05-06T09:34:13.174Z,63
2023-05-06T09:35:13.859Z,63
2023-05-06T09:36:14.265Z,63
2023-05-06T09:37:14.816Z,63
2023-05-06T09:38:15.510Z,63
2023-05-06T09:39:16.125Z,63
2023-05-06T09:40:16.748Z,63
2023-05-06T09:41:17.291Z,63
2023-05-06T09:42:24.037Z,63
2023-05-06T09:43:24.928Z,63
2023-05-06T09:44:25.172Z,63
2023-05-06T09:45:25.697Z,63
2023-05-06T09:46:26.265Z,63
2023-05-06T09:47:26.867Z,63
2023-05-06T09:48:27.382Z,63
2023-05-06T09:49:28.067Z,63
2023-05-06T09:50:28.663Z,63
2023-05-06T09:51:29.204Z,62
2023-05-06T09:52:29.940Z,62
2023-05-06T09:53:30.520Z,62
2023-05-06T09:54:31.086Z,62
2023-05-06T09:55:31.599Z,62
2023-05-06T09:56:32.315Z,62
2023-05-06T09:57:32.846Z,62
2023-05-06T09:58:33.542Z,62
2023-05-06T09:59:34.082Z,62
2023-05-06T10:00:34.611Z,62
2023-05-06T10:01:37.102Z,62
2023-05-06T10:02:36.029Z,62
2023-05-06T10:03:36.630Z,62
2023-05-06T10:04:43.352Z,62
2023-05-06T10:05:43.861Z,62
2023-05-06T10:06:44.572Z,62
2023-05-06T10:07:45.081Z,62
2023-05-06T10:08:45.595Z,62
2023-05-06T10:09:46.148Z,62
2023-05-06T10:10:46.855Z,62
2023-05-06T10:11:47.566Z,60
2023-05-06T10:12:48.328Z,60
2023-05-06T10:13:48.937Z,60
2023-05-06T10:14:49.393Z,60
2023-05-06T10:15:49.969Z,60
2023-05-06T10:16:50.508Z,60
2023-05-06T10:17:51.132Z,60
2023-05-06T10:18:51.608Z,60
2023-05-06T10:19:52.121Z,60
2023-05-06T10:20:52.850Z,60
2023-05-06T10:21:53.375Z,60
2023-05-06T10:22:54.022Z,60
2023-05-06T10:23:54.731Z,60
2023-05-06T10:24:55.238Z,60
2023-05-06T10:25:55.770Z,60
2023-05-06T10:27:02.399Z,60
2023-05-06T10:28:03.814Z,60
2023-05-06T10:29:03.535Z,60
2023-05-06T10:30:04.082Z,60
2023-05-06T10:31:04.603Z,60
2023-05-06T10:32:05.356Z,60
2023-05-06T10:33:05.943Z,60
2023-05-06T10:34:06.560Z,60
2023-05-06T10:35:07.292Z,60
2023-05-06T10:36:07.987Z,60
2023-05-06T10:37:08.431Z,60
2023-05-06T10:38:08.934Z,60
2023-05-06T10:39:09.667Z,60
2023-05-06T10:40:10.218Z,60
2023-05-06T10:41:10.770Z,60
2023-05-06T10:42:11.430Z,60
2023-05-06T10:43:12.054Z,60
2023-05-06T10:44:12.694Z,60
2023-05-06T10:45:13.291Z,60
2023-05-06T10:46:13.976Z,60
2023-05-06T10:47:14.451Z,60
2023-05-06T10:48:14.988Z,60
2023-05-06T10:49:21.608Z,60
2023-05-06T10:50:22.328Z,60
2023-05-06T10:51:23.055Z,59
2023-05-06T10:52:23.577Z,59
2023-05-06T10:53:24.188Z,59
2023-05-06T10:54:24.750Z,59
2023-05-06T10:55:25.359Z,59
2023-05-06T10:56:25.920Z,59
2023-05-06T10:57:26.426Z,59
2023-05-06T10:58:26.933Z,59
2023-05-06T10:59:27.733Z,59
2023-05-06T11:00:28.181Z,59
2023-05-06T11:01:28.742Z,59
2023-05-06T11:02:29.430Z,59
2023-05-06T11:03:29.979Z,59
2023-05-06T11:04:30.447Z,59
2023-05-06T11:05:31.039Z,59
2023-05-06T11:06:31.564Z,59
2023-05-06T11:07:32.110Z,59
2023-05-06T11:08:32.898Z,59
2023-05-06T11:09:33.422Z,59
2023-05-06T11:10:34.151Z,59
2023-05-06T11:11:40.837Z,55
2023-05-06T11:12:41.463Z,55
2023-05-06T11:13:42.136Z,55
2023-05-06T11:14:42.913Z,55
2023-05-06T11:15:43.203Z,55
2023-05-06T11:16:43.770Z,55
2023-05-06T11:17:44.282Z,55
2023-05-06T11:18:44.821Z,55
2023-05-06T11:19:45.326Z,55
2023-05-06T11:20:45.873Z,55
2023-05-06T11:21:47.226Z,55
2023-05-06T11:22:47.224Z,55
2023-05-06T11:23:47.952Z,55
2023-05-06T11:24:48.472Z,55
2023-05-06T11:25:49.017Z,55
2023-05-06T11:26:49.581Z,55
2023-05-06T11:27:50.896Z,55
2023-05-06T11:28:50.669Z,55
2023-05-06T11:29:51.370Z,55
2023-05-06T11:30:52.000Z,55
2023-05-06T11:31:52.414Z,53
2023-05-06T11:32:52.945Z,53
2023-05-06T11:33:53.665Z,53
2023-05-06T11:34:54.193Z,53
2023-05-06T11:35:54.720Z,53
2023-05-06T11:37:01.380Z,53
2023-05-06T11:38:02.013Z,53
2023-05-06T11:39:04.716Z,53
2023-05-06T11:40:03.019Z,53
2023-05-06T11:41:03.573Z,53
2023-05-06T11:42:04.093Z,53
2023-05-06T11:43:04.602Z,53
2023-05-06T11:44:05.134Z,53
2023-05-06T11:45:05.767Z,53
2023-05-06T11:46:06.194Z,53
2023-05-06T11:47:06.708Z,53
2023-05-06T11:48:07.265Z,53
2023-05-06T11:49:07.875Z,53
2023-05-06T11:50:08.414Z,53
2023-05-06T11:51:08.915Z,53
2023-05-06T11:52:09.410Z,53
2023-05-06T11:53:09.952Z,53
2023-05-06T11:54:10.694Z,53
2023-05-06T11:55:11.218Z,53
2023-05-06T11:56:11.932Z,53
2023-05-06T11:57:12.660Z,53
2023-05-06T11:58:13.170Z,53
2023-05-06T11:59:13.691Z,53
2023-05-06T12:00:14.527Z,53
2023-05-06T12:01:14.828Z,53
2023-05-06T12:02:21.447Z,53
2023-05-06T12:03:22.094Z,53
2023-05-06T12:04:22.663Z,53
2023-05-06T12:05:23.163Z,53
2023-05-06T12:06:24.590Z,53
2023-05-06T12:07:24.210Z,53
2023-05-06T12:08:27.697Z,53
2023-05-06T12:09:25.318Z,53
2023-05-06T12:10:25.831Z,53
2023-05-06T12:11:26.374Z,53
2023-05-06T12:12:27.074Z,53
2023-05-06T12:13:27.634Z,53
2023-05-06T12:14:28.172Z,53
2023-05-06T12:15:28.729Z,53
2023-05-06T12:16:29.270Z,53
2023-05-06T12:17:29.790Z,53
2023-05-06T12:18:30.308Z,53
2023-05-06T12:19:30.829Z,53
2023-05-06T12:20:31.371Z,53
2023-05-06T12:21:31.892Z,53
2023-05-06T12:22:32.418Z,53
2023-05-06T12:23:32.940Z,53
2023-05-06T12:24:33.630Z,53
2023-05-06T12:25:34.158Z,53
2023-05-06T12:26:34.711Z,53
2023-05-06T12:27:35.388Z,53
2023-05-06T12:28:36.014Z,53
2023-05-06T12:29:36.717Z,53
2023-05-06T12:30:43.392Z,53
2023-05-06T12:31:43.838Z,54
2023-05-06T12:32:44.372Z,54
2023-05-06T12:33:44.889Z,54
2023-05-06T12:34:45.420Z,54
2023-05-06T12:35:45.923Z,54
2023-05-06T12:36:46.440Z,54
2023-05-06T12:37:46.965Z,54
2023-05-06T12:38:47.471Z,54
2023-05-06T12:39:48.016Z,54
2023-05-06T12:40:48.670Z,54
2023-05-06T12:41:49.404Z,54
2023-05-06T12:42:50.132Z,54
2023-05-06T12:43:50.693Z,54
2023-05-06T12:44:51.205Z,54
2023-05-06T12:45:51.841Z,54
2023-05-06T12:46:52.310Z,54
2023-05-06T12:47:52.926Z,54
2023-05-06T12:48:53.362Z,54
2023-05-06T12:49:53.884Z,54
2023-05-06T12:50:54.411Z,54
2023-05-06T12:51:55.099Z,54
2023-05-06T12:52:55.836Z,54
2023-05-06T12:53:56.408Z,54
2023-05-06T12:54:56.889Z,54
2023-05-06T12:56:03.523Z,54
2023-05-06T12:57:04.051Z,54
2023-05-06T12:58:04.595Z,54
2023-05-06T12:59:05.146Z,54
2023-05-06T13:00:05.665Z,54
2023-05-06T13:01:06.472Z,54
2023-05-06T13:02:06.941Z,54
2023-05-06T13:03:07.472Z,54
2023-05-06T13:04:07.947Z,54
2023-05-06T13:05:08.607Z,54
2023-05-06T13:06:09.264Z,54
2023-05-06T13:07:09.832Z,54
2023-05-06T13:08:10.369Z,54
2023-05-06T13:09:10.931Z,54
2023-05-06T13:10:11.947Z,54
2023-05-06T13:11:12.027Z,53
2023-05-06T13:12:12.743Z,53
2023-05-06T13:13:13.299Z,53
2023-05-06T13:14:13.796Z,53
2023-05-06T13:15:14.520Z,53
2023-05-06T13:16:15.166Z,53
2023-05-06T13:17:15.745Z,53
2023-05-06T13:18:16.261Z,53
2023-05-06T13:20:17.295Z,53
2023-05-06T13:21:24.070Z,53
2023-05-06T13:22:24.585Z,53
2023-05-06T13:23:25.326Z,53
2023-05-06T13:24:25.854Z,53
2023-05-06T13:25:26.565Z,53
2023-05-06T13:26:27.122Z,53
2023-05-06T13:27:27.680Z,53
2023-05-06T13:28:28.228Z,53
2023-05-06T13:29:28.934Z,53
2023-05-06T13:30:29.439Z,53
2023-05-06T13:31:30.048Z,53
2023-05-06T13:32:30.515Z,53
2023-05-06T13:33:31.010Z,53
2023-05-06T13:34:31.550Z,53
2023-05-06T13:35:32.089Z,53
2023-05-06T13:36:32.771Z,53
2023-05-06T13:37:33.502Z,53
2023-05-06T13:38:34.075Z,53
2023-05-06T13:39:34.562Z,53
2023-05-06T13:40:35.116Z,53
2023-05-06T13:41:35.659Z,53
2023-05-06T13:42:36.189Z,53
2023-05-06T13:43:36.716Z,53
2023-05-06T13:44:37.244Z,53
2023-05-06T13:45:37.819Z,53
2023-05-06T13:46:46.285Z,53
2023-05-06T13:47:44.945Z,53
2023-05-06T13:48:45.645Z,53
2023-05-06T13:49:46.371Z,53
2023-05-06T13:50:47.108Z,53
2023-05-06T13:51:47.619Z,56
2023-05-06T13:52:48.147Z,56
2023-05-06T13:53:48.652Z,56
2023-05-06T13:54:49.197Z,56
2023-05-06T13:55:49.760Z,56
2023-05-06T13:56:50.305Z,56
2023-05-06T13:57:50.843Z,56
2023-05-06T13:58:51.398Z,56
2023-05-06T13:59:51.906Z,56
2023-05-06T14:00:52.423Z,56
2023-05-06T14:01:53.119Z,56
2023-05-06T14:02:53.641Z,56
2023-05-06T14:03:54.188Z,56
2023-05-06T14:04:54.792Z,56
2023-05-06T14:05:55.402Z,56
2023-05-06T14:06:56.139Z,56
2023-05-06T14:07:56.761Z,56
2023-05-06T14:08:57.325Z,56
2023-05-06T14:09:57.882Z,56
2023-05-06T14:10:58.422Z,56
2023-05-06T14:12:05.067Z,58
2023-05-06T14:13:07.216Z,58
2023-05-06T14:14:06.519Z,58
2023-05-06T14:15:07.049Z,58
2023-05-06T15:28:24.481Z,82
2023-05-06T16:23:11.119Z,88
2023-05-06T16:24:11.703Z,88
2023-05-06T16:28:05.068Z,88
2023-05-06T16:29:05.644Z,88
2023-05-06T16:30:06.416Z,88
2023-05-06T16:31:07.016Z,88
2023-05-06T16:32:07.654Z,88
2023-05-06T16:33:08.334Z,88
2023-05-06T16:34:08.729Z,88
2023-05-06T16:35:09.245Z,88
2023-05-06T16:36:09.787Z,88
2023-05-06T16:37:10.312Z,88